Time;durP1;ratioP1;P1;durP2;ratioP2;P2;SDS_P1;SDS_P2;PMS_P1;PMS_P2;Temp;Humidity;BMP_temperature;BMP_pressure;BME280_temperature;BME280_humidity;BME280_pressure;Samples;Min_cycle;Max_cycle;Signal;HPM_P1;HPM_P2
2022/08/17 00:00:27;;;;;;;0.20;0.20;;;27.90;64.30;;;;;;3911092;30;20469;-63
2022/08/17 00:02:58;;;;;;;0.20;0.20;;;27.90;64.20;;;;;;3909615;30;20068;-63
2022/08/17 00:05:21;;;;;;;0.45;0.45;;;27.90;64.20;;;;;;3897887;30;20232;-62
2022/08/17 00:07:42;;;;;;;0.30;0.30;;;27.90;64.10;;;;;;3910904;30;20489;-64
2022/08/17 00:10:05;;;;;;;0.20;0.20;;;27.90;64.10;;;;;;3910831;30;20144;-68
2022/08/17 00:12:27;;;;;;;0.20;0.20;;;27.90;64.20;;;;;;3913066;30;20580;-67
2022/08/17 00:15:07;;;;;;;0.50;0.50;;;27.90;64.20;;;;;;3912898;30;20825;-68
2022/08/17 00:17:33;;;;;;;0.25;0.25;;;27.90;64.10;;;;;;3913869;30;20059;-67
2022/08/17 00:19:55;;;;;;;0.00;0.00;;;27.90;64.20;;;;;;3898644;30;20056;-67
2022/08/17 00:22:17;;;;;;;0.00;0.00;;;27.80;64.20;;;;;;3899126;30;20053;-67
2022/08/17 00:24:56;;;;;;;0.80;0.80;;;27.80;64.20;;;;;;3899318;30;20838;-67
2022/08/17 00:27:18;;;;;;;0.00;0.00;;;27.80;64.20;;;;;;3899926;30;20064;-66
2022/08/17 00:29:41;;;;;;;0.75;0.75;;;27.80;64.30;;;;;;3914071;30;20150;-67
2022/08/17 00:32:05;;;;;;;0.40;0.40;;;27.80;64.20;;;;;;3914305;30;20059;-67
2022/08/17 00:34:47;;;;;;;16.98;1.48;;;27.80;64.30;;;;;;3913603;30;20048;-67
2022/08/17 00:37:09;;;;;;;0.13;0.13;;;27.80;64.40;;;;;;3914011;30;20058;-67
2022/08/17 00:39:31;;;;;;;1.13;1.13;;;27.80;64.30;;;;;;3914049;30;20062;-67
2022/08/17 00:41:53;;;;;;;0.22;0.22;;;27.80;64.40;;;;;;3913562;30;20060;-67
2022/08/17 00:44:15;;;;;;;0.15;0.15;;;27.80;64.40;;;;;;3900594;30;20152;-67
2022/08/17 00:46:39;;;;;;;0.20;0.20;;;27.80;64.50;;;;;;3913845;30;20184;-67
2022/08/17 00:49:04;;;;;;;0.20;0.20;;;27.80;64.30;;;;;;3913522;30;20456;-67
2022/08/17 00:51:31;;;;;;;0.00;0.00;;;27.70;64.10;;;;;;3913718;30;20139;-67
2022/08/17 00:53:58;;;;;;;0.10;0.10;;;27.70;64.10;;;;;;3912320;30;20090;-67
2022/08/17 00:56:25;;;;;;;0.00;0.00;;;27.70;64.10;;;;;;3913035;30;20076;-67
2022/08/17 00:58:48;;;;;;;0.10;0.10;;;27.80;64.20;;;;;;3913128;30;20110;-67
2022/08/17 01:01:12;;;;;;;0.00;0.00;;;27.70;64.10;;;;;;3913721;30;20848;-67
2022/08/17 01:03:36;;;;;;;1.85;0.80;;;27.70;64.10;;;;;;3912989;30;20056;-67
2022/08/17 01:06:03;;;;;;;0.00;0.00;;;27.70;64.10;;;;;;3909650;30;20173;-67
2022/08/17 01:08:28;;;;;;;0.30;0.30;;;27.70;64.00;;;;;;3913677;30;20060;-67
2022/08/17 01:10:52;;;;;;;0.10;0.10;;;27.70;64.10;;;;;;3912885;30;20118;-67
2022/08/17 01:13:26;;;;;;;0.10;0.10;;;27.70;64.00;;;;;;3913228;30;20118;-67
2022/08/17 01:15:52;;;;;;;0.30;0.30;;;27.70;64.20;;;;;;3912767;30;20520;-67
2022/08/17 01:18:14;;;;;;;0.00;0.00;;;27.60;64.00;;;;;;3912975;30;20690;-68
2022/08/17 01:20:38;;;;;;;0.00;0.00;;;27.60;64.10;;;;;;3912971;30;20130;-68
2022/08/17 01:23:04;;;;;;;0.93;0.93;;;27.60;64.10;;;;;;3912990;30;20493;-68
2022/08/17 01:25:29;;;;;;;3.00;0.73;;;27.60;64.10;;;;;;3911908;30;20501;-68
2022/08/17 01:27:51;;;;;;;0.00;0.00;;;27.60;64.10;;;;;;3913446;30;20057;-68
2022/08/17 01:30:13;;;;;;;0.50;0.50;;;27.60;64.10;;;;;;3912686;30;20066;-67
2022/08/17 01:32:55;;;;;;;0.08;0.08;;;27.60;64.20;;;;;;3898722;30;20477;-67
2022/08/17 01:35:17;;;;;;;0.00;0.00;;;27.60;64.20;;;;;;3898310;30;20060;-67
2022/08/17 01:37:42;;;;;;;0.03;0.03;;;27.50;64.10;;;;;;3897886;30;20061;-67
2022/08/17 01:40:12;;;;;;;0.10;0.10;;;27.50;64.20;;;;;;3905739;30;20056;-67
2022/08/17 01:42:39;;;;;;;1.08;0.80;;;27.50;64.30;;;;;;3912945;30;20110;-69
2022/08/17 01:45:06;;;;;;;0.00;0.00;;;27.50;64.30;;;;;;3912804;30;20053;-68
2022/08/17 01:47:28;;;;;;;0.00;0.00;;;27.50;64.30;;;;;;3912982;30;20057;-67
2022/08/17 01:49:50;;;;;;;0.17;0.17;;;27.50;64.30;;;;;;3913112;30;20155;-67
2022/08/17 01:52:13;;;;;;;0.00;0.00;;;27.50;64.30;;;;;;3897897;30;20080;-67
2022/08/17 01:54:36;;;;;;;0.03;0.03;;;27.50;64.40;;;;;;3898255;30;20147;-67
2022/08/17 01:56:59;;;;;;;0.10;0.10;;;27.40;64.40;;;;;;3897458;30;20057;-67
2022/08/17 01:59:21;;;;;;;0.30;0.30;;;27.50;64.50;;;;;;3898515;30;20068;-68
2022/08/17 02:01:44;;;;;;;0.22;0.22;;;27.40;64.40;;;;;;3910016;30;20062;-67
2022/08/17 02:04:08;;;;;;;0.20;0.20;;;27.50;64.50;;;;;;3912832;30;20057;-63
2022/08/17 02:06:31;;;;;;;0.85;0.85;;;27.40;64.40;;;;;;3912058;30;20052;-67
2022/08/17 02:08:53;;;;;;;0.50;0.50;;;27.40;64.50;;;;;;3912703;30;20425;-67
2022/08/17 02:11:23;;;;;;;0.00;0.00;;;27.40;64.50;;;;;;3891662;30;20474;-68
2022/08/17 02:13:49;;;;;;;0.22;0.22;;;27.40;64.40;;;;;;3913030;30;21054;-67
2022/08/17 02:16:16;;;;;;;0.03;0.03;;;27.40;64.50;;;;;;3912289;30;20064;-68
2022/08/17 02:18:38;;;;;;;0.10;0.10;;;27.40;64.40;;;;;;3912134;30;20052;-67
2022/08/17 02:21:00;;;;;;;0.73;0.73;;;27.40;64.40;;;;;;3912210;30;20577;-67
2022/08/17 02:23:26;;;;;;;0.10;0.10;;;27.40;64.30;;;;;;3912236;30;20067;-67
2022/08/17 02:25:48;;;;;;;0.47;0.47;;;27.40;64.30;;;;;;3912415;30;20086;-67
2022/08/17 02:28:11;;;;;;;1.27;1.05;;;27.40;64.40;;;;;;3911986;30;20071;-67
2022/08/17 02:30:35;;;;;;;0.57;0.57;;;27.40;64.30;;;;;;3912457;30;20053;-66
2022/08/17 02:33:11;;;;;;;0.00;0.00;;;27.40;64.40;;;;;;3912460;30;20118;-66
2022/08/17 02:35:33;;;;;;;0.55;0.55;;;27.40;64.40;;;;;;3911767;30;20148;-66
2022/08/17 02:37:55;;;;;;;1.52;0.82;;;27.30;64.30;;;;;;3912330;30;20059;-66
2022/08/17 02:40:17;;;;;;;0.22;0.22;;;27.30;65.20;;;;;;3912026;30;20071;-66
2022/08/17 02:42:41;;;;;;;0.10;0.10;;;27.30;64.30;;;;;;3912226;30;20079;-68
2022/08/17 02:45:07;;;;;;;0.20;0.20;;;27.30;64.30;;;;;;3911875;30;20469;-68
2022/08/17 02:47:30;;;;;;;0.00;0.00;;;27.30;64.30;;;;;;3911990;30;20420;-69
2022/08/17 02:49:53;;;;;;;0.20;0.20;;;27.30;64.30;;;;;;3911551;30;20153;-67
2022/08/17 02:52:17;;;;;;;0.00;0.00;;;27.30;64.30;;;;;;3911910;30;20063;-67
2022/08/17 02:54:38;;;;;;;0.10;0.10;;;27.30;64.30;;;;;;3911316;30;20064;-66
2022/08/17 02:57:03;;;;;;;0.43;0.43;;;27.30;64.30;;;;;;3912055;30;20143;-67
2022/08/17 02:59:25;;;;;;;0.43;0.43;;;27.30;64.30;;;;;;3911160;30;20063;-67
2022/08/17 03:01:47;;;;;;;0.10;0.10;;;27.30;64.30;;;;;;3911781;30;20068;-67
2022/08/17 03:04:10;;;;;;;3.08;0.45;;;27.30;64.30;;;;;;3898058;30;20446;-66
2022/08/17 03:06:32;;;;;;;0.28;0.28;;;27.30;64.30;;;;;;3892867;30;20061;-66
2022/08/17 03:08:54;;;;;;;0.28;0.28;;;27.30;64.30;;;;;;3911419;30;20213;-67
2022/08/17 03:11:16;;;;;;;0.00;0.00;;;27.30;64.30;;;;;;3897592;30;20070;-66
2022/08/17 03:13:38;;;;;;;0.22;0.22;;;27.20;64.20;;;;;;3897311;30;20111;-66
2022/08/17 03:16:00;;;;;;;0.10;0.10;;;27.20;64.20;;;;;;3897249;30;20575;-66
2022/08/17 03:18:24;;;;;;;0.10;0.10;;;27.20;64.20;;;;;;3896937;30;20068;-66
2022/08/17 03:20:48;;;;;;;0.20;0.20;;;27.20;64.20;;;;;;3908503;30;20130;-67
2022/08/17 03:23:10;;;;;;;0.00;0.00;;;27.20;64.30;;;;;;3911757;30;20055;-67
2022/08/17 03:25:36;;;;;;;0.55;0.55;;;27.20;64.20;;;;;;3910122;30;20464;-67
2022/08/17 03:27:58;;;;;;;0.30;0.30;;;27.20;64.20;;;;;;3898339;30;20068;-67
2022/08/17 03:30:21;;;;;;;0.20;0.20;;;27.20;64.20;;;;;;3911466;30;20060;-67
2022/08/17 03:32:45;;;;;;;0.00;0.00;;;27.10;64.20;;;;;;3911171;30;20067;-66
2022/08/17 03:35:08;;;;;;;0.00;0.00;;;27.20;64.30;;;;;;3911506;30;20147;-66
2022/08/17 03:37:31;;;;;;;0.20;0.20;;;27.10;64.20;;;;;;3896740;30;20199;-66
2022/08/17 03:39:54;;;;;;;0.75;0.75;;;27.10;64.20;;;;;;3902757;30;20106;-63
2022/08/17 03:42:19;;;;;;;0.10;0.10;;;27.10;64.20;;;;;;3911266;30;20413;-63
2022/08/17 03:44:54;;;;;;;0.15;0.15;;;27.10;64.30;;;;;;3911180;30;20612;-63
2022/08/17 03:57:57;;;;;;;0.00;0.00;;;27.00;64.40;;;;;;3914737;30;20185;-63
2022/08/17 04:00:19;;;;;;;0.13;0.13;;;27.00;64.40;;;;;;3900370;30;20146;-63
2022/08/17 04:02:42;;;;;;;0.20;0.20;;;27.00;64.50;;;;;;3914630;30;20139;-62
2022/08/17 04:05:05;;;;;;;0.10;0.10;;;27.00;64.60;;;;;;3914237;30;20079;-62
2022/08/17 04:07:29;;;;;;;0.35;0.35;;;27.00;64.50;;;;;;3914793;30;20079;-62
2022/08/17 04:09:53;;;;;;;0.13;0.13;;;27.00;64.50;;;;;;3912816;30;20102;-62
2022/08/17 04:12:16;;;;;;;0.15;0.15;;;27.00;64.50;;;;;;3914404;30;20063;-63
2022/08/17 04:14:38;;;;;;;0.00;0.00;;;27.00;64.50;;;;;;3914066;30;20060;-63
2022/08/17 04:17:14;;;;;;;0.00;0.00;;;27.00;64.50;;;;;;3914294;30;20063;-62
2022/08/17 04:19:36;;;;;;;0.00;0.00;;;27.00;64.50;;;;;;3914514;30;20504;-63
2022/08/17 04:21:58;;;;;;;0.00;0.00;;;27.00;64.50;;;;;;3914022;30;20057;-62
2022/08/17 04:24:20;;;;;;;0.10;0.10;;;27.00;64.40;;;;;;3914147;30;20063;-63
2022/08/17 04:26:45;;;;;;;0.55;0.55;;;27.00;65.10;;;;;;3913897;30;20498;-63
2022/08/17 04:29:11;;;;;;;2.20;0.63;;;27.00;65.10;;;;;;3911357;30;20158;-63
2022/08/17 04:31:33;;;;;;;0.10;0.10;;;27.00;65.00;;;;;;3899952;30;20470;-62
2022/08/17 04:33:55;;;;;;;0.00;0.00;;;27.00;65.90;;;;;;3913946;30;20068;-63
2022/08/17 04:36:18;;;;;;;0.00;0.00;;;27.00;65.00;;;;;;3913533;30;20141;-63
2022/08/17 04:38:44;;;;;;;0.00;0.00;;;26.90;64.90;;;;;;3913614;30;20056;-63
2022/08/17 04:43:50;;;;;;;0.80;0.80;;;27.00;65.00;;;;;;3913956;30;20063;-63
2022/08/17 04:46:14;;;;;;;0.00;0.00;;;26.90;65.00;;;;;;3913218;30;20059;-67
2022/08/17 04:48:38;;;;;;;0.20;0.20;;;26.90;65.10;;;;;;3913618;30;20076;-62
2022/08/17 04:51:01;;;;;;;0.15;0.15;;;26.90;65.10;;;;;;3911839;30;20056;-69
2022/08/17 04:53:24;;;;;;;0.25;0.25;;;26.90;65.20;;;;;;3913369;30;20068;-63
2022/08/17 04:55:45;;;;;;;0.00;0.00;;;26.90;65.20;;;;;;3913400;30;20118;-63
2022/08/17 04:58:08;;;;;;;0.20;0.20;;;26.90;65.20;;;;;;3899751;30;20071;-62
2022/08/17 05:00:31;;;;;;;0.00;0.00;;;26.90;65.10;;;;;;3912816;30;20083;-63
2022/08/17 05:02:55;;;;;;;0.80;0.80;;;26.90;65.10;;;;;;3913493;30;20084;-62
2022/08/17 05:05:19;;;;;;;0.80;0.57;;;26.90;65.20;;;;;;3912633;30;20053;-63
2022/08/17 05:07:41;;;;;;;0.52;0.52;;;26.90;65.20;;;;;;3912408;30;20064;-62
2022/08/17 05:10:04;;;;;;;1.55;0.30;;;26.80;65.10;;;;;;3912984;30;20145;-63
2022/08/17 05:12:26;;;;;;;0.15;0.15;;;26.80;65.10;;;;;;3913199;30;20064;-63
2022/08/17 05:14:48;;;;;;;0.10;0.10;;;26.80;65.10;;;;;;3912741;30;20079;-63
2022/08/17 05:17:11;;;;;;;1.90;1.38;;;26.80;65.10;;;;;;3913041;30;20135;-63
2022/08/17 05:19:33;;;;;;;0.00;0.00;;;26.80;65.10;;;;;;3913068;30;20063;-64
2022/08/17 05:21:55;;;;;;;0.40;0.40;;;26.80;65.10;;;;;;3898841;30;20059;-64
2022/08/17 05:24:17;;;;;;;0.20;0.20;;;26.80;65.10;;;;;;3912788;30;20060;-64
2022/08/17 05:26:59;;;;;;;1.20;1.10;;;26.80;65.00;;;;;;3913155;30;20515;-64
2022/08/17 05:29:27;;;;;;;0.00;0.00;;;26.80;65.10;;;;;;3912708;30;20138;-63
2022/08/17 05:31:55;;;;;;;0.00;0.00;;;26.80;65.10;;;;;;3912790;30;20326;-63
2022/08/17 05:34:18;;;;;;;0.40;0.40;;;26.80;65.20;;;;;;3912969;30;20060;-63
2022/08/17 05:36:40;;;;;;;0.35;0.35;;;26.80;65.10;;;;;;3912654;30;20140;-64
2022/08/17 05:39:05;;;;;;;0.08;0.08;;;26.80;65.20;;;;;;3913032;30;20159;-64
2022/08/17 05:41:27;;;;;;;0.55;0.55;;;26.70;65.10;;;;;;3912730;30;20053;-64
2022/08/17 05:43:49;;;;;;;1.15;1.15;;;26.80;65.30;;;;;;3912857;30;20064;-63
2022/08/17 05:46:22;;;;;;;0.73;0.73;;;26.70;65.20;;;;;;3912807;30;20106;-64
2022/08/17 05:48:47;;;;;;;0.00;0.00;;;26.70;65.30;;;;;;3908111;30;20131;-64
2022/08/17 05:51:31;;;;;;;0.40;0.40;;;26.70;65.40;;;;;;3923571;30;20060;-64
2022/08/17 05:54:07;;;;;;;0.40;0.40;;;26.70;65.50;;;;;;3922479;30;20458;-63
2022/08/17 05:56:51;;;;;;;0.50;0.50;;;26.70;65.50;;;;;;3923307;30;20068;-63
2022/08/17 05:59:23;;;;;;;1.25;1.17;;;26.70;65.60;;;;;;3927266;30;20076;-63
2022/08/17 06:01:53;;;;;;;0.38;0.38;;;26.70;65.70;;;;;;3926989;30;20412;-64
2022/08/17 06:04:25;;;;;;;0.25;0.25;;;26.70;65.80;;;;;;3918114;30;20075;-64
2022/08/17 06:06:55;;;;;;;0.00;0.00;;;26.70;66.00;;;;;;3926864;30;20063;-64
2022/08/17 06:09:31;;;;;;;0.63;0.63;;;26.70;66.10;;;;;;3921975;30;20143;-68
2022/08/17 06:12:03;;;;;;;0.50;0.50;;;26.70;66.20;;;;;;3898642;30;20099;-68
2022/08/17 06:14:35;;;;;;;0.30;0.30;;;26.60;66.20;;;;;;3897450;30;20072;-68
2022/08/17 06:17:02;;;;;;;0.30;0.30;;;26.60;66.30;;;;;;3910669;30;20056;-69
2022/08/17 06:19:32;;;;;;;1.67;0.25;;;26.60;66.40;;;;;;3908651;30;20053;-68
2022/08/17 06:21:56;;;;;;;0.20;0.20;;;26.60;66.50;;;;;;3919689;30;20139;-68
2022/08/17 06:24:27;;;;;;;0.90;0.90;;;26.60;66.50;;;;;;3911919;30;20060;-68
2022/08/17 06:26:52;;;;;;;0.35;0.35;;;26.60;66.70;;;;;;3912049;30;20051;-68
2022/08/17 06:29:27;;;;;;;0.25;0.25;;;26.60;66.80;;;;;;3911881;30;20143;-68
2022/08/17 06:31:49;;;;;;;0.25;0.25;;;26.60;66.90;;;;;;3911155;30;20113;-70
2022/08/17 06:34:13;;;;;;;0.38;0.38;;;26.60;67.10;;;;;;3911734;30;20489;-67
2022/08/17 06:36:50;;;;;;;0.25;0.25;;;26.60;67.30;;;;;;3911934;30;20059;-69
2022/08/17 06:39:26;;;;;;;0.30;0.30;;;26.60;67.60;;;;;;3912017;30;20182;-67
2022/08/17 06:41:56;;;;;;;0.80;0.65;;;26.60;67.90;;;;;;3911918;30;20512;-63
2022/08/17 06:44:23;;;;;;;0.73;0.73;;;26.60;68.10;;;;;;3898019;30;20146;-63
2022/08/17 06:47:07;;;;;;;1.33;1.05;;;26.50;68.20;;;;;;3911780;30;20049;-64
2022/08/17 06:49:40;;;;;;;0.35;0.35;;;26.60;68.30;;;;;;3911734;30;20555;-63
2022/08/17 06:52:11;;;;;;;1.58;1.58;;;26.50;68.50;;;;;;3911295;30;20065;-67
2022/08/17 06:54:44;;;;;;;0.75;0.75;;;26.50;68.80;;;;;;3910755;30;20087;-67
2022/08/17 06:57:13;;;;;;;0.73;0.73;;;26.50;68.90;;;;;;3897810;30;20068;-67
2022/08/17 06:59:45;;;;;;;2.00;0.90;;;26.50;69.10;;;;;;3897038;30;20055;-68
2022/08/17 07:02:13;;;;;;;1.40;1.30;;;26.50;69.20;;;;;;3906544;30;20149;-68
2022/08/17 07:04:35;;;;;;;3.90;1.77;;;26.50;69.40;;;;;;3910905;30;20060;-67
2022/08/17 07:08:00;;;;;;;1.15;1.08;;;26.50;69.50;;;;;;3898200;30;20111;-68
2022/08/17 07:09:45;;;;;;;0.55;0.55;;;26.50;69.80;;;;;;3911615;30;20056;-67
2022/08/17 07:12:14;;;;;;;2.05;1.95;;;26.40;69.90;;;;;;3898283;30;20049;-67
2022/08/17 07:14:43;;;;;;;0.80;0.80;;;26.40;70.00;;;;;;3910936;30;20534;-67
2022/08/17 07:17:10;;;;;;;1.02;1.02;;;26.50;70.30;;;;;;3909954;30;20062;-68
2022/08/17 07:19:34;;;;;;;0.30;0.30;;;26.40;70.40;;;;;;3910128;30;20073;-68
2022/08/17 07:22:04;;;;;;;1.65;1.65;;;26.40;70.70;;;;;;3911667;30;20068;-67
2022/08/17 07:24:36;;;;;;;0.75;0.75;;;26.40;70.90;;;;;;3910020;30;20064;-63
2022/08/17 07:27:09;;;;;;;0.30;0.30;;;26.30;71.00;;;;;;3909848;30;20056;-63
2022/08/17 07:29:37;;;;;;;0.43;0.43;;;26.30;71.00;;;;;;3896738;30;20136;-63
2022/08/17 07:31:59;;;;;;;0.93;0.93;;;26.30;71.20;;;;;;3910762;30;20854;-63
2022/08/17 07:34:21;;;;;;;0.68;0.68;;;26.30;71.50;;;;;;3911589;30;20110;-61
2022/08/17 07:36:43;;;;;;;4.65;0.68;;;26.30;71.70;;;;;;3911399;30;20156;-61
2022/08/17 07:39:06;;;;;;;0.82;0.82;;;26.30;72.10;;;;;;3911810;30;20063;-61
2022/08/17 07:41:31;;;;;;;0.88;0.88;;;26.30;72.10;;;;;;3910743;30;20057;-61
2022/08/17 07:44:16;;;;;;;0.35;0.35;;;26.30;72.00;;;;;;3911164;30;20056;-60
2022/08/17 07:49:35;;;;;;;0.77;0.77;;;26.30;72.10;;;;;;3910482;30;20055;-66
2022/08/17 07:52:02;;;;;;;0.65;0.65;;;26.30;72.20;;;;;;3909869;30;20057;-62
2022/08/17 07:54:44;;;;;;;0.52;0.52;;;26.30;72.30;;;;;;3912673;30;20126;-62
2022/08/17 07:57:39;;;;;;;0.30;0.30;;;26.20;72.60;;;;;;3921991;30;20139;-63
2022/08/17 08:00:18;;;;;;;0.63;0.63;;;26.20;72.70;;;;;;3868795;30;20058;-61
2022/08/17 08:02:44;;;;;;;1.05;0.98;;;26.10;72.70;;;;;;3867216;30;20851;-61
2022/08/17 08:05:12;;;;;;;0.98;0.98;;;26.20;72.70;;;;;;3889311;30;20099;-64
2022/08/17 08:07:38;;;;;;;0.20;0.20;;;26.10;72.70;;;;;;3922622;30;20044;-63
2022/08/17 08:10:06;;;;;;;1.17;1.05;;;26.10;72.70;;;;;;3910864;30;20519;-69
2022/08/17 08:12:33;;;;;;;0.75;0.75;;;26.10;72.80;;;;;;3909463;30;20498;-68
2022/08/17 08:14:57;;;;;;;0.00;0.00;;;26.10;72.80;;;;;;3917667;30;20165;-67
2022/08/17 08:17:24;;;;;;;0.40;0.40;;;26.10;72.80;;;;;;3907817;30;20227;-68
2022/08/17 08:19:47;;;;;;;0.20;0.20;;;26.20;72.90;;;;;;3918368;30;20063;-67
2022/08/17 08:22:16;;;;;;;0.32;0.32;;;26.20;72.90;;;;;;3900196;30;20395;-68
2022/08/17 08:24:51;;;;;;;1.67;1.25;;;26.20;73.00;;;;;;3914705;30;20056;-69
2022/08/17 08:27:26;;;;;;;0.55;0.55;;;26.20;73.30;;;;;;3912132;30;20123;-69
2022/08/17 08:30:01;;;;;;;0.00;0.00;;;26.20;73.50;;;;;;3902089;30;20076;-68
2022/08/17 08:32:39;;;;;;;2.03;1.63;;;26.20;73.70;;;;;;3916596;30;20086;-67
2022/08/17 08:35:06;;;;;;;0.08;0.08;;;26.20;73.90;;;;;;3910887;30;20054;-68
2022/08/17 08:37:40;;;;;;;1.65;1.65;;;26.20;73.90;;;;;;3898203;30;20087;-68
2022/08/17 08:40:12;;;;;;;2.22;0.45;;;26.20;74.00;;;;;;3916105;30;20103;-68
2022/08/17 08:42:42;;;;;;;8.30;3.00;;;26.10;73.90;;;;;;3906112;30;20149;-68
2022/08/17 08:45:12;;;;;;;0.57;0.57;;;26.20;74.20;;;;;;3910636;30;20125;-68
2022/08/17 08:47:51;;;;;;;0.38;0.38;;;26.10;74.00;;;;;;3914833;30;20524;-68
2022/08/17 08:50:25;;;;;;;2.60;1.60;;;26.10;74.00;;;;;;3924736;30;20056;-68
2022/08/17 08:53:03;;;;;;;1.65;1.65;;;26.20;74.20;;;;;;3915321;30;20126;-68
2022/08/17 08:55:34;;;;;;;4.65;1.65;;;26.10;74.30;;;;;;3897112;30;20056;-69
2022/08/17 08:58:00;;;;;;;2.65;1.13;;;26.10;74.40;;;;;;3914027;30;20143;-69
2022/08/17 09:00:24;;;;;;;3.53;1.02;;;26.10;74.30;;;;;;3914936;30;20490;-68
2022/08/17 09:03:18;;;;;;;4.47;1.58;;;26.20;74.50;;;;;;3918502;30;20053;-68
2022/08/17 09:06:03;;;;;;;0.05;0.05;;;26.20;74.50;;;;;;3898644;30;20063;-69
2022/08/17 09:08:44;;;;;;;0.98;0.98;;;26.10;74.40;;;;;;3898523;30;20060;-62
2022/08/17 09:11:11;;;;;;;1.27;1.27;;;26.10;74.30;;;;;;3916110;30;20056;-62
2022/08/17 09:13:47;;;;;;;0.90;0.90;;;26.10;74.50;;;;;;3901172;30;20057;-63
2022/08/17 09:16:21;;;;;;;0.70;0.70;;;26.10;74.50;;;;;;3910545;30;20229;-62
2022/08/17 09:18:50;;;;;;;2.60;1.55;;;26.10;74.40;;;;;;3914243;30;20432;-63
2022/08/17 09:21:39;;;;;;;1.25;1.25;;;26.10;74.50;;;;;;3913370;30;20068;-62
2022/08/17 09:24:19;;;;;;;0.50;0.50;;;26.10;74.50;;;;;;3923717;30;20143;-62
2022/08/17 09:26:48;;;;;;;0.52;0.52;;;26.10;74.50;;;;;;3914872;30;20064;-62
2022/08/17 09:29:14;;;;;;;5.05;1.65;;;26.10;74.50;;;;;;3910535;30;20547;-62
2022/08/17 09:31:46;;;;;;;1.27;1.27;;;26.10;74.50;;;;;;3918744;30;20070;-62
2022/08/17 09:34:15;;;;;;;1.13;1.10;;;26.10;74.60;;;;;;3919393;30;20102;-62
2022/08/17 09:36:44;;;;;;;4.80;1.17;;;26.10;74.60;;;;;;3896844;30;20212;-62
2022/08/17 09:39:10;;;;;;;1.58;1.52;;;26.10;75.40;;;;;;3910553;30;20526;-63
2022/08/17 09:41:39;;;;;;;0.32;0.32;;;26.10;75.40;;;;;;3910888;30;20588;-62
2022/08/17 09:44:15;;;;;;;2.67;1.38;;;26.10;74.50;;;;;;3910173;30;20561;-62
2022/08/17 09:46:50;;;;;;;0.10;0.10;;;26.10;74.50;;;;;;3916277;30;20052;-61
2022/08/17 09:49:22;;;;;;;1.95;1.85;;;26.10;74.40;;;;;;3923031;30;20540;-60
2022/08/17 09:51:50;;;;;;;0.30;0.30;;;26.10;74.40;;;;;;3914437;30;20454;-59
2022/08/17 09:54:20;;;;;;;0.80;0.80;;;26.10;74.10;;;;;;3897184;30;20443;-60
2022/08/17 09:57:08;;;;;;;1.15;1.15;;;26.10;74.10;;;;;;3906865;30;20153;-60
2022/08/17 10:00:01;;;;;;;0.40;0.40;;;26.10;74.20;;;;;;3918569;30;20093;-68
2022/08/17 10:02:57;;;;;;;1.80;1.80;;;26.10;74.20;;;;;;3910411;30;20143;-67
2022/08/17 10:05:28;;;;;;;0.20;0.20;;;26.10;74.00;;;;;;3923954;30;20510;-68
2022/08/17 10:07:54;;;;;;;;;;;26.10;73.90;;;;;;3920338;30;20062;-68
2022/08/17 10:10:23;;;;;;;0.20;0.20;;;26.20;73.60;;;;;;3912769;30;19926;-67
2022/08/17 10:12:55;;;;;;;2.28;1.65;;;26.20;73.60;;;;;;3910452;30;20163;-68
2022/08/17 10:15:25;;;;;;;1.17;1.08;;;26.20;73.40;;;;;;3912538;30;20151;-68
2022/08/17 10:18:01;;;;;;;0.82;0.82;;;26.20;73.40;;;;;;3911460;30;20135;-68
2022/08/17 10:20:32;;;;;;;0.38;0.38;;;26.20;73.10;;;;;;3898613;30;20065;-68
2022/08/17 10:28:29;;;;;;;0.40;0.40;;;26.20;72.60;;;;;;3909296;30;20068;-59
2022/08/17 10:30:56;;;;;;;0.63;0.63;;;26.30;72.40;;;;;;3898691;30;20525;-60
2022/08/17 10:33:49;;;;;;;0.32;0.32;;;26.30;72.40;;;;;;3898791;30;20139;-60
2022/08/17 10:36:18;;;;;;;0.15;0.15;;;26.30;72.20;;;;;;3912501;30;20118;-60
2022/08/17 10:38:45;;;;;;;1.05;0.52;;;26.30;72.00;;;;;;3911907;30;20107;-60
2022/08/17 10:41:24;;;;;;;0.93;0.88;;;26.30;72.00;;;;;;3911914;30;20147;-61
2022/08/17 10:43:57;;;;;;;2.88;1.17;;;26.30;71.90;;;;;;3912244;30;20057;-60
2022/08/17 10:46:45;;;;;;;0.10;0.10;;;26.30;71.80;;;;;;3911898;30;20523;-60
2022/08/17 10:49:23;;;;;;;0.63;0.63;;;26.30;71.60;;;;;;3911702;30;20052;-60
2022/08/17 10:51:48;;;;;;;0.03;0.03;;;26.30;71.30;;;;;;3911845;30;20671;-60
2022/08/17 10:54:36;;;;;;;0.08;0.08;;;26.30;71.30;;;;;;3911527;30;20080;-60
2022/08/17 10:56:59;;;;;;;0.00;0.00;;;26.30;71.20;;;;;;3911839;30;20060;-68
2022/08/17 10:59:50;;;;;;;0.68;0.68;;;26.30;71.20;;;;;;3911501;30;20083;-68
2022/08/17 11:02:26;;;;;;;2.38;1.48;;;26.30;71.00;;;;;;3911685;30;20413;-68
2022/08/17 11:05:01;;;;;;;0.55;0.55;;;26.30;70.90;;;;;;3911575;30;20055;-68
2022/08/17 11:07:42;;;;;;;0.10;0.10;;;26.30;70.30;;;;;;3911738;30;20524;-67
2022/08/17 11:10:30;;;;;;;0.15;0.15;;;26.30;69.90;;;;;;3911373;30;20048;-68
2022/08/17 11:13:01;;;;;;;0.73;0.73;;;26.30;70.10;;;;;;3910445;30;20059;-69
2022/08/17 11:15:40;;;;;;;0.30;0.30;;;26.30;70.00;;;;;;3910823;30;20082;-61
2022/08/17 11:18:21;;;;;;;0.00;0.00;;;26.30;70.40;;;;;;3897666;30;20829;-61
2022/08/17 11:21:03;;;;;;;3.40;1.40;;;26.30;70.40;;;;;;3899106;30;20164;-61
2022/08/17 11:23:44;;;;;;;0.55;0.55;;;26.30;70.30;;;;;;3898337;30;20067;-61
2022/08/17 11:26:24;;;;;;;0.28;0.28;;;26.30;70.30;;;;;;3909607;30;20070;-61
2022/08/17 11:28:53;;;;;;;0.80;0.80;;;26.30;70.20;;;;;;3911622;30;20053;-61
2022/08/17 11:31:28;;;;;;;1.35;0.47;;;26.30;70.00;;;;;;3912436;30;20064;-61
2022/08/17 11:34:07;;;;;;;0.40;0.40;;;26.30;70.00;;;;;;3911083;30;20449;-69
2022/08/17 11:37:11;;;;;;;0.28;0.28;;;26.30;70.00;;;;;;3905584;30;20061;-69
2022/08/17 11:40:10;;;;;;;0.28;0.28;;;26.30;70.00;;;;;;3890402;30;20471;-69
2022/08/17 11:42:53;;;;;;;0.20;0.20;;;26.40;69.80;;;;;;3911013;30;20118;-69
2022/08/17 11:45:49;;;;;;;0.50;0.50;;;26.40;69.90;;;;;;3897743;30;20060;-67
2022/08/17 11:54:00;;;;;;;;;;;26.50;69.50;;;;;;3911705;30;20088;-61
2022/08/17 11:56:46;;;;;;;0.22;0.22;;;26.50;68.80;;;;;;3911215;30;19989;-62
2022/08/17 11:59:46;;;;;;;0.63;0.63;;;26.50;69.00;;;;;;3910458;30;20438;-60
2022/08/17 12:02:30;;;;;;;0.65;0.65;;;26.50;68.50;;;;;;3910939;30;20559;-70
2022/08/17 12:05:03;;;;;;;0.20;0.17;;;26.50;68.70;;;;;;3897858;30;20060;-69
2022/08/17 12:07:26;;;;;;;0.52;0.52;;;26.50;69.00;;;;;;3910327;30;20068;-69
2022/08/17 12:09:52;;;;;;;0.00;0.00;;;26.50;69.00;;;;;;3912668;30;20103;-69
2022/08/17 12:12:19;;;;;;;0.00;0.00;;;26.60;68.80;;;;;;3913144;30;20505;-68
2022/08/17 12:14:48;;;;;;;1.55;1.17;;;26.60;68.70;;;;;;3906979;30;20053;-70
2022/08/17 12:17:33;;;;;;;0.28;0.28;;;26.60;69.00;;;;;;3908638;30;20477;-70
2022/08/17 12:20:13;;;;;;;0.40;0.40;;;26.60;69.10;;;;;;3900866;30;20084;-69
2022/08/17 12:22:45;;;;;;;0.05;0.05;;;26.60;69.10;;;;;;3912885;30;20223;-69
2022/08/17 12:25:13;;;;;;;7.50;2.00;;;26.60;69.30;;;;;;3913976;30;20467;-69
2022/08/17 12:27:45;;;;;;;0.32;0.32;;;26.60;69.60;;;;;;3913488;30;20057;-70
2022/08/17 12:30:28;;;;;;;0.90;0.90;;;26.60;69.60;;;;;;3899434;30;20084;-70
2022/08/17 12:32:51;;;;;;;7.47;1.45;;;26.60;69.90;;;;;;3898130;30;20049;-69
2022/08/17 12:35:23;;;;;;;0.00;0.00;;;26.70;70.10;;;;;;3898390;30;20057;-69
2022/08/17 12:37:48;;;;;;;0.22;0.22;;;26.60;70.10;;;;;;3911577;30;20063;-69
2022/08/17 12:40:21;;;;;;;0.10;0.10;;;26.60;70.30;;;;;;3913683;30;20091;-62
2022/08/17 12:42:56;;;;;;;0.10;0.10;;;26.60;70.50;;;;;;3912992;30;20064;-61
2022/08/17 12:45:25;;;;;;;0.65;0.47;;;26.60;70.50;;;;;;3913413;30;20480;-61
2022/08/17 12:47:49;;;;;;;0.82;0.75;;;26.70;70.50;;;;;;3913755;30;20128;-61
2022/08/17 12:50:14;;;;;;;0.47;0.30;;;26.70;70.50;;;;;;3905391;30;20052;-60
2022/08/17 12:52:51;;;;;;;0.30;0.30;;;26.70;70.60;;;;;;3913494;30;20067;-61
2022/08/17 12:55:19;;;;;;;0.10;0.10;;;26.70;70.50;;;;;;3913288;30;20088;-62
2022/08/17 12:57:45;;;;;;;0.47;0.47;;;26.70;70.50;;;;;;3899483;30;20065;-61
2022/08/17 13:00:16;;;;;;;0.60;0.60;;;26.70;70.70;;;;;;3885333;30;20072;-61
2022/08/17 13:02:43;;;;;;;1.88;1.17;;;26.70;70.80;;;;;;3898595;30;20057;-64
2022/08/17 13:05:08;;;;;;;0.17;0.17;;;26.70;71.80;;;;;;3902463;30;20139;-62
2022/08/17 13:07:33;;;;;;;0.00;0.00;;;26.70;71.10;;;;;;3908972;30;20080;-62
2022/08/17 13:09:56;;;;;;;0.30;0.30;;;26.70;71.00;;;;;;3898677;30;20061;-62
2022/08/17 13:12:27;;;;;;;3.03;0.65;;;26.70;71.10;;;;;;3897370;30;20128;-63
2022/08/17 13:14:49;;;;;;;0.20;0.20;;;26.60;71.10;;;;;;3899933;30;20099;-62
2022/08/17 13:17:13;;;;;;;0.32;0.32;;;26.70;71.40;;;;;;3907121;30;20180;-61
2022/08/17 13:19:46;;;;;;;0.88;0.73;;;26.70;71.40;;;;;;3912622;30;20132;-62
2022/08/17 13:22:12;;;;;;;0.43;0.43;;;26.70;71.50;;;;;;3912866;30;20056;-61
2022/08/17 13:24:34;;;;;;;0.32;0.32;;;26.70;71.50;;;;;;3912087;30;20067;-62